sensor_id;sensor_type;location;lat;lon;timestamp;temperature;humidity
43862;DHT22;29510;52.140;5.034;2023-09-07T00:07:31;19.10;2.40
43862;DHT22;29510;52.140;5.034;2023-09-07T00:17:32;19.10;3.60
43862;DHT22;29510;52.140;5.034;2023-09-07T00:27:36;19.00;3.50
43862;DHT22;29510;52.140;5.034;2023-09-07T00:37:37;18.90;7.20
43862;DHT22;29510;52.140;5.034;2023-09-07T00:47:38;18.90;10.60
43862;DHT22;29510;52.140;5.034;2023-09-07T00:57:38;18.90;11.60
43862;DHT22;29510;52.140;5.034;2023-09-07T01:07:48;18.90;10.30
43862;DHT22;29510;52.140;5.034;2023-09-07T01:17:51;19.00;5.10
43862;DHT22;29510;52.140;5.034;2023-09-07T01:27:52;19.00;1.00
43862;DHT22;29510;52.140;5.034;2023-09-07T01:37:52;18.80;1.00
43862;DHT22;29510;52.140;5.034;2023-09-07T01:47:53;18.70;1.40
43862;DHT22;29510;52.140;5.034;2023-09-07T01:57:53;18.60;5.50
43862;DHT22;29510;52.140;5.034;2023-09-07T02:07:54;18.50;10.90
43862;DHT22;29510;52.140;5.034;2023-09-07T02:17:55;18.40;10.60
43862;DHT22;29510;52.140;5.034;2023-09-07T02:27:55;18.30;14.60
43862;DHT22;29510;52.140;5.034;2023-09-07T02:37:56;18.10;16.80
43862;DHT22;29510;52.140;5.034;2023-09-07T02:47:56;18.00;17.80
43862;DHT22;29510;52.140;5.034;2023-09-07T02:57:57;17.90;20.80
43862;DHT22;29510;52.140;5.034;2023-09-07T03:07:58;17.80;25.50
43862;DHT22;29510;52.140;5.034;2023-09-07T03:17:58;17.70;30.70
43862;DHT22;29510;52.140;5.034;2023-09-07T03:27:59;17.70;32.20
43862;DHT22;29510;52.140;5.034;2023-09-07T03:38:00;17.60;36.10
43862;DHT22;29510;52.140;5.034;2023-09-07T03:48:00;17.40;34.90
43862;DHT22;29510;52.140;5.034;2023-09-07T03:58:01;17.30;32.70
43862;DHT22;29510;52.140;5.034;2023-09-07T04:08:02;17.30;32.30
43862;DHT22;29510;52.140;5.034;2023-09-07T04:18:03;17.20;37.60
43862;DHT22;29510;52.140;5.034;2023-09-07T04:28:04;17.20;49.60
43862;DHT22;29510;52.140;5.034;2023-09-07T04:38:05;17.10;44.50
43862;DHT22;29510;52.140;5.034;2023-09-07T04:48:06;17.00;43.80
43862;DHT22;29510;52.140;5.034;2023-09-07T04:58:06;17.00;45.00
43862;DHT22;29510;52.140;5.034;2023-09-07T05:08:07;16.90;47.70
43862;DHT22;29510;52.140;5.034;2023-09-07T05:18:08;16.80;46.20
43862;DHT22;29510;52.140;5.034;2023-09-07T05:28:08;16.70;53.30
43862;DHT22;29510;52.140;5.034;2023-09-07T05:38:09;16.70;67.90
43862;DHT22;29510;52.140;5.034;2023-09-07T05:48:09;16.70;76.70
43862;DHT22;29510;52.140;5.034;2023-09-07T05:58:11;16.90;87.80
43862;DHT22;29510;52.140;5.034;2023-09-07T06:08:11;17.20;91.70
43862;DHT22;29510;52.140;5.034;2023-09-07T06:18:12;17.40;91.50
43862;DHT22;29510;52.140;5.034;2023-09-07T06:28:12;17.70;81.60
43862;DHT22;29510;52.140;5.034;2023-09-07T06:38:13;17.90;60.90
43862;DHT22;29510;52.140;5.034;2023-09-07T06:48:13;18.30;22.70
43862;DHT22;29510;52.140;5.034;2023-09-07T06:58:14;18.70;2.70
43862;DHT22;29510;52.140;5.034;2023-09-07T07:08:14;18.90;1.00
43862;DHT22;29510;52.140;5.034;2023-09-07T07:18:15;19.30;1.00
43862;DHT22;29510;52.140;5.034;2023-09-07T07:28:15;19.60;1.00
43862;DHT22;29510;52.140;5.034;2023-09-07T07:38:16;19.90;1.00
43862;DHT22;29510;52.140;5.034;2023-09-07T07:48:17;20.30;1.00
43862;DHT22;29510;52.140;5.034;2023-09-07T07:58:17;20.70;1.00
43862;DHT22;29510;52.140;5.034;2023-09-07T08:08:18;21.00;1.00
43862;DHT22;29510;52.140;5.034;2023-09-07T08:18:19;21.40;1.00
43862;DHT22;29510;52.140;5.034;2023-09-07T08:28:19;21.90;1.00
43862;DHT22;29510;52.140;5.034;2023-09-07T08:38:23;22.50;1.00
43862;DHT22;29510;52.140;5.034;2023-09-07T08:48:27;22.90;1.00
43862;DHT22;29510;52.140;5.034;2023-09-07T08:58:29;23.40;1.00
43862;DHT22;29510;52.140;5.034;2023-09-07T09:08:42;24.00;1.00
43862;DHT22;29510;52.140;5.034;2023-09-07T09:18:54;24.60;1.00
43862;DHT22;29510;52.140;5.034;2023-09-07T09:28:56;25.70;1.00
43862;DHT22;29510;52.140;5.034;2023-09-07T09:38:56;26.30;1.00
43862;DHT22;29510;52.140;5.034;2023-09-07T09:48:57;26.00;1.00
43862;DHT22;29510;52.140;5.034;2023-09-07T09:58:58;26.50;1.00
43862;DHT22;29510;52.140;5.034;2023-09-07T10:09:04;26.60;1.00
43862;DHT22;29510;52.140;5.034;2023-09-07T10:19:20;26.70;1.00
43862;DHT22;29510;52.140;5.034;2023-09-07T10:29:21;26.90;1.00
43862;DHT22;29510;52.140;5.034;2023-09-07T10:39:23;27.20;1.00
43862;DHT22;29510;52.140;5.034;2023-09-07T10:49:28;27.40;1.00
43862;DHT22;29510;52.140;5.034;2023-09-07T10:59:29;27.80;1.00
43862;DHT22;29510;52.140;5.034;2023-09-07T11:09:30;28.20;1.00
43862;DHT22;29510;52.140;5.034;2023-09-07T11:19:32;28.80;1.00
43862;DHT22;29510;52.140;5.034;2023-09-07T11:29:33;29.20;1.00
43862;DHT22;29510;52.140;5.034;2023-09-07T11:39:34;29.70;1.00
43862;DHT22;29510;52.140;5.034;2023-09-07T11:49:35;30.10;1.00
43862;DHT22;29510;52.140;5.034;2023-09-07T11:59:35;30.10;1.00
43862;DHT22;29510;52.140;5.034;2023-09-07T12:09:36;30.50;1.00
43862;DHT22;29510;52.140;5.034;2023-09-07T12:19:36;30.70;1.00
43862;DHT22;29510;52.140;5.034;2023-09-07T12:29:37;30.90;1.00
43862;DHT22;29510;52.140;5.034;2023-09-07T12:39:37;31.00;1.00
43862;DHT22;29510;52.140;5.034;2023-09-07T12:49:38;31.10;1.00
43862;DHT22;29510;52.140;5.034;2023-09-07T12:59:40;30.90;1.00
43862;DHT22;29510;52.140;5.034;2023-09-07T13:09:42;31.00;1.00
43862;DHT22;29510;52.140;5.034;2023-09-07T13:19:43;31.40;1.00
43862;DHT22;29510;52.140;5.034;2023-09-07T13:29:44;31.70;1.00
43862;DHT22;29510;52.140;5.034;2023-09-07T13:39:44;31.70;1.00
43862;DHT22;29510;52.140;5.034;2023-09-07T13:49:45;31.70;1.00
43862;DHT22;29510;52.140;5.034;2023-09-07T13:59:46;31.90;1.00
43862;DHT22;29510;52.140;5.034;2023-09-07T14:09:46;31.90;1.00
43862;DHT22;29510;52.140;5.034;2023-09-07T14:19:47;31.90;1.00
43862;DHT22;29510;52.140;5.034;2023-09-07T14:29:47;31.60;1.00
43862;DHT22;29510;52.140;5.034;2023-09-07T14:39:48;31.40;1.00
43862;DHT22;29510;52.140;5.034;2023-09-07T14:49:51;31.20;1.00
43862;DHT22;29510;52.140;5.034;2023-09-07T14:59:52;30.90;1.00
43862;DHT22;29510;52.140;5.034;2023-09-07T15:09:53;30.70;1.00
43862;DHT22;29510;52.140;5.034;2023-09-07T15:19:53;30.50;1.00
43862;DHT22;29510;52.140;5.034;2023-09-07T15:29:54;30.50;1.00
43862;DHT22;29510;52.140;5.034;2023-09-07T15:39:55;30.30;1.00
43862;DHT22;29510;52.140;5.034;2023-09-07T15:49:57;30.10;1.00
43862;DHT22;29510;52.140;5.034;2023-09-07T15:59:57;29.90;1.00
43862;DHT22;29510;52.140;5.034;2023-09-07T16:09:58;29.70;1.00
43862;DHT22;29510;52.140;5.034;2023-09-07T16:20:03;29.50;1.00
43862;DHT22;29510;52.140;5.034;2023-09-07T16:30:05;29.10;1.00
43862;DHT22;29510;52.140;5.034;2023-09-07T16:40:06;28.90;1.00
43862;DHT22;29510;52.140;5.034;2023-09-07T16:50:08;28.70;1.00
43862;DHT22;29510;52.140;5.034;2023-09-07T17:00:10;28.40;1.00
43862;DHT22;29510;52.140;5.034;2023-09-07T17:10:11;28.20;1.00
43862;DHT22;29510;52.140;5.034;2023-09-07T17:20:12;27.90;1.00
43862;DHT22;29510;52.140;5.034;2023-09-07T17:30:13;27.80;1.00
43862;DHT22;29510;52.140;5.034;2023-09-07T17:40:14;27.60;1.00
43862;DHT22;29510;52.140;5.034;2023-09-07T17:50:15;27.40;1.00
43862;DHT22;29510;52.140;5.034;2023-09-07T18:00:15;27.00;1.00
43862;DHT22;29510;52.140;5.034;2023-09-07T18:10:16;26.60;1.00
43862;DHT22;29510;52.140;5.034;2023-09-07T18:20:17;25.90;1.00
43862;DHT22;29510;52.140;5.034;2023-09-07T18:30:19;25.40;1.00
43862;DHT22;29510;52.140;5.034;2023-09-07T18:40:20;24.80;1.00
43862;DHT22;29510;52.140;5.034;2023-09-07T18:50:20;24.40;1.00
43862;DHT22;29510;52.140;5.034;2023-09-07T19:00:23;24.00;1.00
43862;DHT22;29510;52.140;5.034;2023-09-07T19:10:24;23.70;1.00
43862;DHT22;29510;52.140;5.034;2023-09-07T19:20:24;23.60;1.00
43862;DHT22;29510;52.140;5.034;2023-09-07T19:30:25;23.50;1.00
43862;DHT22;29510;52.140;5.034;2023-09-07T19:40:28;23.40;1.00
43862;DHT22;29510;52.140;5.034;2023-09-07T19:50:29;23.20;1.00
43862;DHT22;29510;52.140;5.034;2023-09-07T20:00:29;22.90;1.00
43862;DHT22;29510;52.140;5.034;2023-09-07T20:10:30;22.50;1.00
43862;DHT22;29510;52.140;5.034;2023-09-07T20:20:30;22.30;1.00
43862;DHT22;29510;52.140;5.034;2023-09-07T20:30:31;22.10;1.00
43862;DHT22;29510;52.140;5.034;2023-09-07T20:40:32;22.00;1.00
43862;DHT22;29510;52.140;5.034;2023-09-07T20:50:32;21.90;1.00
43862;DHT22;29510;52.140;5.034;2023-09-07T21:00:33;21.70;1.00
43862;DHT22;29510;52.140;5.034;2023-09-07T21:10:33;21.40;1.00
43862;DHT22;29510;52.140;5.034;2023-09-07T21:20:34;21.20;1.00
43862;DHT22;29510;52.140;5.034;2023-09-07T21:30:35;21.10;1.00
43862;DHT22;29510;52.140;5.034;2023-09-07T21:40:36;21.00;1.00
43862;DHT22;29510;52.140;5.034;2023-09-07T21:50:36;20.90;1.00
43862;DHT22;29510;52.140;5.034;2023-09-07T22:00:37;20.80;1.00
43862;DHT22;29510;52.140;5.034;2023-09-07T22:10:37;20.70;1.00
43862;DHT22;29510;52.140;5.034;2023-09-07T22:20:40;20.50;1.00
43862;DHT22;29510;52.140;5.034;2023-09-07T22:30:41;20.40;1.00
43862;DHT22;29510;52.140;5.034;2023-09-07T22:40:41;20.20;1.00
43862;DHT22;29510;52.140;5.034;2023-09-07T22:50:42;20.10;1.00
43862;DHT22;29510;52.140;5.034;2023-09-07T23:00:48;20.10;1.00
43862;DHT22;29510;52.140;5.034;2023-09-07T23:10:49;20.10;1.00
43862;DHT22;29510;52.140;5.034;2023-09-07T23:20:52;20.00;1.00
43862;DHT22;29510;52.140;5.034;2023-09-07T23:30:52;20.00;1.00
43862;DHT22;29510;52.140;5.034;2023-09-07T23:40:54;20.00;1.00
43862;DHT22;29510;52.140;5.034;2023-09-07T23:50:54;19.90;1.00
